Airfield :
LOGIN :

Register | Disclaimer

   EN    FR    IT 

 










Legend :    VFR   Marginal VFR   IFR   Intensive IFR   Very Intensive IFR
Visi :
Ceiling :
>= 8 km
>= 3000ft
5 to 8 km
1000 to 3000 ft
1500m to 5 km
500 to 1000 ft
800 to 1500m
200 to 500 ft
< 800m
< 200 ft
Symbols :   Thunderstorms  Fog  Heavy snow  Heavy precipitations  Wind > 20 kt
SIGMETs :     Misc.  Thunderstorms  Icing  Turbulence  Mountain Waves  Volcanic Ashes







- Airport Elevation : 499 ft
- IATA code : TLS
- Download approach charts


LFBO - Toulouse / Blagnac

CURRENT METAR :
  • 260000Z AUTO VRB03KT CAVOK 08/06 Q1013 TEMPO SCT040TCU

EXPIRED METARs :
  • 252330Z AUTO 19003KT CAVOK 08/07 Q1012 TEMPO 28012KT SCT040TCU
  • 252300Z AUTO 13003KT CAVOK 09/08 Q1012 NOSIG
  • 252230Z AUTO 15006KT CAVOK 09/07 Q1012 NOSIG
  • 252200Z AUTO 11006KT CAVOK 10/08 Q1012 NOSIG
  • 252130Z AUTO 09005KT CAVOK 11/08 Q1011 NOSIG
  • 252100Z AUTO VRB03KT CAVOK 11/07 Q1011 NOSIG

TAF TAF LFBO
Valid from the 26 at 00:00 until the 27 at 06:00 UTC


252300Z 2600/2706 VRB03KT CAVOK
TEMPO 2600/2602 28012KT SCT040TCU
BECMG 2607/2609 26010KT SCT020TCU
TEMPO 2609/2616 26018G30KT 4000 SHRA BKN015 FEW030CB
BECMG 2618/2620 SCT030
ATIS : +33 5 62 74 66 36
No reported NOTAMs for that airfield.
1 SIGMET reported for the Bordeaux FIR (LFBB) :
 
Embedded thunderstorms
LFBB SIGMET 19 VALID 252200/260000 LFPW
LFBB BORDEAUX FIR/UIR EMBD TS FCST WI N4245 E00030 - N4300 W00145 - N4545 W00145 - N4545 E00045 - N4245 E00030 TOP FL270 STNR NC=



MET'MAP, your aeronautical weather chart ! - Copyright ORBIFLY December 2007 - Disclaimer

ORBIFLY MET'MAP TEAM :

Programming & Development : Alexandra Zaïnal
Concept & Development : Baudouin d'Aumeries
Co-Development & Prog : Marc-Olivier Méhu
Technical & hardware support : Manuel Goepfert

Contact : metmap@orbifly.com




SOURCES & CREDITS :

   NOAA